createdAt,value
2019-03-26T00:05:23.670Z,14.30
2019-03-26T00:09:35.110Z,12.63
2019-03-26T00:13:47.373Z,12.97
2019-03-26T00:17:58.934Z,14.77
2019-03-26T00:22:11.175Z,14.83
2019-03-26T00:26:22.225Z,10.80
2019-03-26T00:30:34.700Z,15.27
2019-03-26T00:34:46.539Z,13.97
2019-03-26T00:39:09.415Z,14.73
2019-03-26T00:43:20.663Z,16.23
2019-03-26T00:47:35.874Z,10.47
2019-03-26T00:51:48.534Z,12.30
2019-03-26T00:55:59.774Z,19.03
2019-03-26T01:00:13.490Z,12.60
2019-03-26T01:04:32.588Z,7.70
2019-03-26T01:08:40.428Z,13.17
2019-03-26T01:12:52.960Z,12.00
2019-03-26T01:17:04.506Z,10.97
2019-03-26T01:21:17.748Z,11.67
2019-03-26T01:25:29.551Z,10.17
2019-03-26T01:29:40.979Z,12.70
2019-03-26T01:33:56.246Z,10.20
2019-03-26T01:38:07.564Z,7.53
2019-03-26T01:42:19.571Z,8.53
2019-03-26T01:46:31.580Z,7.20
2019-03-26T01:50:43.482Z,6.13
2019-03-26T01:54:57.462Z,5.57
2019-03-26T01:59:10.371Z,6.20
2019-03-26T02:03:23.440Z,5.73
2019-03-26T02:07:38.847Z,4.50
2019-03-26T02:11:53.138Z,3.50
2019-03-26T02:16:06.722Z,4.10
2019-03-26T02:20:21.198Z,5.10
2019-03-26T02:24:34.546Z,4.17
2019-03-26T02:28:47.553Z,4.40
2019-03-26T02:32:59.989Z,4.13
2019-03-26T02:37:11.632Z,3.73
2019-03-26T02:41:24.491Z,3.60
2019-03-26T02:45:37.440Z,5.80
2019-03-26T02:49:50.871Z,2.80
2019-03-26T02:54:02.698Z,5.40
2019-03-26T02:58:15.201Z,2.80
2019-03-26T03:02:29.199Z,2.80
2019-03-26T03:06:40.504Z,4.33
2019-03-26T03:10:52.076Z,2.63
2019-03-26T03:15:03.830Z,3.03
2019-03-26T03:19:15.996Z,2.53
2019-03-26T03:23:27.712Z,2.73
2019-03-26T03:27:39.361Z,2.53
2019-03-26T03:31:50.786Z,3.20
2019-03-26T03:36:02.193Z,2.63
2019-03-26T03:40:14.589Z,3.07
2019-03-26T03:44:26.056Z,2.77
2019-03-26T03:48:38.862Z,2.50
2019-03-26T03:52:50.690Z,1.97
2019-03-26T03:57:05.123Z,3.07
2019-03-26T04:01:17.436Z,2.47
2019-03-26T04:05:28.946Z,3.10
2019-03-26T04:09:41.228Z,2.80
2019-03-26T04:14:01.560Z,3.20
2019-03-26T04:18:12.928Z,3.50
2019-03-26T04:22:25.966Z,2.20
2019-03-26T04:26:37.898Z,3.43
2019-03-26T04:30:49.407Z,2.07
2019-03-26T04:35:00.821Z,1.90
2019-03-26T04:39:12.682Z,3.70
2019-03-26T04:43:24.264Z,2.30
2019-03-26T04:47:44.141Z,2.80
2019-03-26T04:51:55.941Z,3.10
2019-03-26T04:56:06.948Z,3.90
2019-03-26T05:00:18.988Z,3.10
2019-03-26T05:04:30.541Z,4.10
2019-03-26T05:08:41.899Z,3.40
2019-03-26T05:12:53.004Z,2.80
2019-03-26T05:17:04.419Z,2.83
2019-03-26T05:21:15.574Z,3.30
2019-03-26T05:25:27.100Z,4.00
2019-03-26T05:29:38.541Z,4.43
2019-03-26T05:33:49.999Z,4.20
2019-03-26T05:38:01.174Z,3.50
2019-03-26T05:42:12.707Z,4.90
2019-03-26T05:46:23.970Z,5.77
2019-03-26T05:50:36.090Z,5.87
2019-03-26T05:54:46.980Z,3.73
2019-03-26T05:58:57.479Z,5.23
2019-03-26T06:03:09.250Z,4.73
2019-03-26T06:07:22.105Z,4.57
2019-03-26T06:11:33.391Z,4.10
2019-03-26T06:15:45.356Z,4.00
2019-03-26T06:19:58.392Z,4.40
2019-03-26T06:24:10.472Z,4.83
2019-03-26T06:28:22.369Z,5.03
2019-03-26T06:32:33.803Z,5.30
2019-03-26T06:36:45.449Z,5.03
2019-03-26T06:40:56.833Z,5.40
2019-03-26T06:45:08.490Z,4.37
2019-03-26T06:49:19.585Z,4.73
2019-03-26T06:53:32.054Z,5.10
2019-03-26T06:57:44.939Z,4.77
2019-03-26T07:01:56.122Z,4.27
2019-03-26T07:06:08.062Z,4.50
2019-03-26T07:10:23.077Z,3.93
2019-03-26T07:14:34.478Z,5.30
2019-03-26T07:18:45.262Z,4.43
2019-03-26T07:22:57.059Z,4.33
2019-03-26T07:27:08.583Z,4.20
2019-03-26T07:31:20.189Z,4.33
2019-03-26T07:35:31.365Z,4.43
2019-03-26T07:39:43.000Z,4.23
2019-03-26T07:43:53.999Z,4.70
2019-03-26T07:48:06.262Z,4.23
2019-03-26T07:52:17.634Z,5.80
2019-03-26T07:56:30.044Z,6.70
2019-03-26T08:00:42.723Z,4.93
2019-03-26T08:04:54.860Z,4.90
2019-03-26T08:09:06.655Z,5.00
2019-03-26T08:13:18.116Z,5.47
2019-03-26T08:17:29.109Z,4.60
2019-03-26T08:21:41.324Z,4.77
2019-03-26T08:25:52.819Z,5.97
2019-03-26T08:30:05.695Z,4.30
2019-03-26T08:34:17.336Z,6.00
2019-03-26T08:38:28.998Z,5.93
2019-03-26T08:42:40.296Z,8.30
2019-03-26T08:46:51.246Z,6.83
2019-03-26T08:51:02.860Z,7.30
2019-03-26T08:55:16.054Z,6.93
2019-03-26T08:59:26.735Z,6.83
2019-03-26T09:03:38.003Z,5.50
2019-03-26T09:07:49.373Z,6.13
2019-03-26T09:12:02.297Z,7.57
2019-03-26T09:16:13.423Z,9.50
2019-03-26T09:20:26.064Z,9.57
2019-03-26T09:24:37.200Z,8.80
2019-03-26T09:28:48.334Z,7.90
2019-03-26T09:32:58.833Z,7.20
2019-03-26T09:37:10.038Z,8.57
2019-03-26T09:41:21.802Z,7.80
2019-03-26T09:45:33.477Z,7.40
2019-03-26T09:49:44.695Z,7.73
2019-03-26T09:53:56.042Z,8.50
2019-03-26T09:58:07.806Z,9.17
2019-03-26T10:02:19.658Z,11.57
2019-03-26T10:06:32.056Z,7.73
2019-03-26T10:10:44.127Z,9.57
2019-03-26T10:14:56.236Z,6.90
2019-03-26T10:19:07.880Z,6.97
2019-03-26T10:23:22.901Z,8.37
2019-03-26T10:27:35.080Z,7.30
2019-03-26T10:31:47.295Z,7.73
2019-03-26T10:35:59.607Z,9.97
2019-03-26T10:40:11.702Z,12.37
2019-03-26T10:44:22.863Z,9.57
2019-03-26T10:48:35.963Z,8.40
2019-03-26T10:52:48.311Z,9.47
2019-03-26T10:57:00.954Z,10.70
2019-03-26T11:01:13.779Z,8.00
2019-03-26T11:05:26.798Z,10.67
2019-03-26T11:09:39.168Z,10.77
2019-03-26T11:13:51.809Z,15.83
2019-03-26T11:18:03.320Z,11.80
2019-03-26T11:22:18.031Z,12.37
2019-03-26T11:26:30.284Z,10.93
2019-03-26T11:30:42.094Z,12.07
2019-03-26T11:34:53.483Z,11.27
2019-03-26T11:39:06.261Z,10.50
2019-03-26T11:43:17.928Z,8.13
2019-03-26T11:47:37.965Z,13.20
2019-03-26T11:51:50.104Z,9.53
2019-03-26T11:56:01.551Z,8.60
2019-03-26T12:00:18.410Z,15.77
2019-03-26T12:04:31.546Z,9.93
2019-03-26T12:08:43.127Z,9.93
2019-03-26T12:12:56.374Z,9.57
2019-03-26T12:17:08.975Z,8.53
2019-03-26T12:21:20.893Z,8.77
2019-03-26T12:25:32.217Z,6.97
2019-03-26T12:29:44.239Z,10.83
2019-03-26T12:33:55.523Z,8.80
2019-03-26T12:38:19.156Z,8.83
2019-03-26T12:42:40.341Z,9.50
2019-03-26T12:46:51.873Z,8.77
2019-03-26T12:51:04.485Z,13.83
2019-03-26T12:55:16.246Z,13.83
2019-03-26T12:59:27.492Z,8.57
2019-03-26T13:03:38.835Z,8.27
2019-03-26T13:07:50.446Z,8.20
2019-03-26T13:12:02.071Z,8.40
2019-03-26T13:16:13.883Z,9.00
2019-03-26T13:20:31.623Z,8.80
2019-03-26T13:24:43.591Z,8.00
2019-03-26T13:28:54.683Z,8.13
2019-03-26T13:33:07.247Z,8.50
2019-03-26T13:37:21.560Z,12.93
2019-03-26T13:41:32.306Z,11.23
2019-03-26T13:45:43.714Z,8.60
2019-03-26T13:49:56.633Z,8.33
2019-03-26T13:54:09.060Z,8.20
2019-03-26T13:58:20.630Z,10.33
2019-03-26T14:02:32.420Z,8.20
2019-03-26T14:06:44.924Z,8.07
2019-03-26T14:10:56.660Z,7.30
2019-03-26T14:15:09.388Z,10.30
2019-03-26T14:19:20.580Z,9.00
2019-03-26T14:23:32.693Z,7.60
2019-03-26T14:27:44.801Z,7.13
2019-03-26T14:31:57.861Z,10.97
2019-03-26T14:36:10.430Z,7.43
2019-03-26T14:40:22.369Z,8.50
2019-03-26T14:44:35.938Z,8.50
2019-03-26T14:48:48.356Z,11.53
2019-03-26T14:52:59.804Z,8.57
2019-03-26T14:57:12.595Z,8.77
2019-03-26T15:01:24.561Z,6.97
2019-03-26T15:05:36.443Z,8.23
2019-03-26T15:09:48.231Z,18.73
2019-03-26T15:13:59.657Z,26.93
2019-03-26T15:18:11.835Z,36.50
2019-03-26T15:22:23.935Z,34.13
2019-03-26T15:26:35.802Z,38.97
2019-03-26T15:30:47.140Z,41.57
2019-03-26T15:34:59.479Z,47.40
2019-03-26T15:39:12.805Z,41.67
2019-03-26T15:43:24.015Z,37.97
2019-03-26T15:47:40.533Z,44.67
2019-03-26T15:51:52.358Z,44.27
2019-03-26T15:56:03.966Z,40.50
2019-03-26T16:00:17.297Z,41.80
2019-03-26T16:04:28.755Z,37.07
2019-03-26T16:08:40.328Z,32.07
2019-03-26T16:12:51.968Z,28.30
2019-03-26T16:17:04.436Z,36.73
2019-03-26T16:21:16.495Z,36.50
2019-03-26T16:25:29.922Z,33.60
2019-03-26T16:29:41.788Z,30.83
2019-03-26T16:33:53.231Z,25.47
2019-03-26T16:38:04.147Z,45.77
2019-03-26T16:42:16.201Z,36.47
2019-03-26T16:46:27.213Z,34.60
2019-03-26T16:50:38.558Z,32.40
2019-03-26T16:54:50.923Z,29.50
2019-03-26T16:59:05.739Z,39.70
2019-03-26T17:03:30.400Z,23.60
2019-03-26T17:07:30.527Z,30.63
2019-03-26T17:11:41.777Z,31.27
2019-03-26T17:16:05.705Z,25.77
2019-03-26T17:20:15.782Z,24.27
2019-03-26T17:24:28.337Z,29.70
2019-03-26T17:28:40.913Z,27.60
2019-03-26T17:32:52.887Z,28.77
2019-03-26T17:37:04.443Z,23.97
2019-03-26T17:41:16.443Z,28.17
2019-03-26T17:45:29.653Z,20.43
2019-03-26T17:49:41.289Z,19.77
2019-03-26T17:53:53.186Z,27.03
2019-03-26T17:58:04.519Z,24.17
2019-03-26T18:02:15.501Z,19.27
2019-03-26T18:06:27.628Z,19.20
2019-03-26T18:10:38.728Z,20.40
2019-03-26T18:14:50.526Z,18.13
2019-03-26T18:19:01.777Z,18.70
2019-03-26T18:23:13.797Z,21.90
2019-03-26T18:27:26.284Z,21.30
2019-03-26T18:31:38.014Z,15.47
2019-03-26T18:35:49.170Z,17.83
2019-03-26T18:40:01.584Z,17.37
2019-03-26T18:44:13.196Z,18.60
2019-03-26T18:48:25.436Z,17.10
2019-03-26T18:52:38.818Z,15.53
2019-03-26T18:56:49.977Z,14.87
2019-03-26T19:01:01.102Z,18.33
2019-03-26T19:05:13.931Z,18.10
2019-03-26T19:09:25.836Z,20.70
2019-03-26T19:13:37.364Z,17.50
2019-03-26T19:17:48.615Z,17.20
2019-03-26T19:22:00.114Z,17.77
2019-03-26T19:26:11.234Z,17.73
2019-03-26T19:30:23.344Z,13.63
2019-03-26T19:34:35.060Z,15.43
2019-03-26T19:38:56.236Z,13.30
2019-03-26T19:43:11.179Z,15.13
2019-03-26T19:47:22.019Z,18.33
2019-03-26T19:51:33.982Z,15.70
2019-03-26T19:55:44.782Z,13.73
2019-03-26T19:59:56.816Z,12.67
2019-03-26T20:04:08.357Z,13.37
2019-03-26T20:08:20.759Z,13.73
2019-03-26T20:12:32.015Z,12.20
2019-03-26T20:16:43.522Z,12.07
2019-03-26T20:20:54.614Z,11.03
2019-03-26T20:25:05.667Z,12.27
2019-03-26T20:29:17.798Z,12.03
2019-03-26T20:33:29.185Z,10.63
2019-03-26T20:37:41.405Z,11.47
2019-03-26T20:41:53.547Z,12.63
2019-03-26T20:46:04.242Z,11.80
2019-03-26T20:50:16.327Z,16.53
2019-03-26T20:54:28.169Z,12.03
2019-03-26T20:58:40.566Z,11.83
2019-03-26T21:02:52.559Z,14.10
2019-03-26T21:07:05.719Z,11.03
2019-03-26T21:11:16.792Z,12.43
2019-03-26T21:15:29.066Z,10.87
2019-03-26T21:19:41.491Z,13.53
2019-03-26T21:23:53.459Z,11.07
2019-03-26T21:28:04.643Z,10.33
2019-03-26T21:32:16.999Z,10.40
2019-03-26T21:36:28.570Z,10.47
2019-03-26T21:40:40.515Z,10.40
2019-03-26T21:44:52.160Z,10.83
2019-03-26T21:49:03.397Z,11.50
2019-03-26T21:53:16.435Z,10.93
2019-03-26T21:57:29.106Z,11.97
2019-03-26T22:01:53.345Z,12.27
2019-03-26T22:06:02.893Z,11.57
2019-03-26T22:10:21.882Z,13.23
2019-03-26T22:20:13.947Z,11.17
2019-03-26T22:28:24.477Z,13.87
2019-03-26T22:37:17.368Z,16.07
2019-03-26T22:41:32.346Z,16.30
2019-03-26T22:55:02.634Z,15.60
2019-03-26T22:59:40.342Z,12.43
2019-03-26T23:03:37.002Z,16.90
2019-03-26T23:12:37.272Z,10.77
2019-03-26T23:16:45.883Z,8.03
2019-03-26T23:21:39.461Z,6.77
2019-03-26T23:25:35.213Z,15.50
2019-03-26T23:29:51.695Z,14.77
2019-03-26T23:34:10.121Z,11.80
2019-03-26T23:47:40.890Z,13.40
2019-03-26T23:56:41.296Z,265.53
